Aeroporto :







RITROVATECI SU...

 
LOGIN :

Iscrizione | Disclaimer

   EN    FR    IT 

 









Sommario :    VFR   VFR Marginale   IFR   IFR Intensivo   IFR Molto Intensivo
Visibilità : 
Base nubi : 
>= 8 km
>= 3000ft
5 / 8 km
1000 / 3000 ft
1500m / 5 km
500 / 1000 ft
800 / 1500m
200 / 500 ft
< 800m
< 200 ft
Simboli :   Temporali  Nebbia  Neve Forte  Precipitazioni Forti  Vento > 20 kt






- Altitudine del aeroporto : 74 ft
- Codice IATA : STX


TISX - Henri E Rohlsen

ULTIMO METAR :
  • 281553Z 10010KT 10SM SCT020 31/25 A2995 RMK AO2 SLP139 VCSH T03110250

METARs OBSOLETI :
  • 281453Z 13007KT 10SM SCT018 31/26 A2996 RMK AO2 SLP142 T03110256 51008
  • 281353Z 09007KT 10SM SCT018 30/25 A2995 RMK AO2 SLP141 T03000250

TAF TISX
Valido dal 28 a 12 ore il 29 a 12 ore UTC


281129Z 2812/2912 VRB03KT P6SM VCSH FEW040
FM281400 12010KT P6SM FEW030 SCT050
FM282200 VRB05KT P6SM VCSH SCT025
FIR TJZS / America del Nord



MetMap, La meteo Aeronautica in un colpo d'occhio ! - Copyright ORBIFLY Dicembre 2007 - Disclaimer

ORBIFLY MET'MAP TEAM :

Programmazione e sviluppo : Alexandra Zaïnal
Concezione : Baudouin d'Aumeries
Aiuto per la programmazione : Marc-Olivier Méhu
Supporto tecnico e logistico : Manuel Goepfert
Aiuto per la traduzione : Arnaldo La Scala

Contatto : metmap@orbifly.com




FONTI E CREDITI :

   NOAA